sensor_id;sensor_type;location;lat;lon;timestamp;temperature;humidity
40758;DHT22;26462;47.384;19.218;2023-04-01T00:00:10;10.60;99.90
40758;DHT22;26462;47.384;19.218;2023-04-01T00:02:38;10.60;99.90
40758;DHT22;26462;47.384;19.218;2023-04-01T00:05:06;10.40;99.90
40758;DHT22;26462;47.384;19.218;2023-04-01T00:07:34;10.60;99.90
40758;DHT22;26462;47.384;19.218;2023-04-01T00:10:02;10.50;99.90
40758;DHT22;26462;47.384;19.218;2023-04-01T00:12:29;10.60;99.90
40758;DHT22;26462;47.384;19.218;2023-04-01T00:14:57;10.50;99.90
40758;DHT22;26462;47.384;19.218;2023-04-01T00:17:25;10.40;99.90
40758;DHT22;26462;47.384;19.218;2023-04-01T00:19:56;10.60;99.90
40758;DHT22;26462;47.384;19.218;2023-04-01T00:22:24;10.40;99.90
40758;DHT22;26462;47.384;19.218;2023-04-01T00:24:53;10.60;99.90
40758;DHT22;26462;47.384;19.218;2023-04-01T00:27:23;10.60;99.90
40758;DHT22;26462;47.384;19.218;2023-04-01T00:29:51;10.50;99.90
40758;DHT22;26462;47.384;19.218;2023-04-01T00:32:21;10.30;99.90
40758;DHT22;26462;47.384;19.218;2023-04-01T00:34:50;10.40;99.90
40758;DHT22;26462;47.384;19.218;2023-04-01T00:37:19;10.50;99.90
40758;DHT22;26462;47.384;19.218;2023-04-01T00:39:50;10.20;99.90
40758;DHT22;26462;47.384;19.218;2023-04-01T00:42:20;10.40;99.90
40758;DHT22;26462;47.384;19.218;2023-04-01T00:44:54;10.40;99.90
40758;DHT22;26462;47.384;19.218;2023-04-01T00:47:24;10.40;99.90
40758;DHT22;26462;47.384;19.218;2023-04-01T00:49:54;10.40;99.90
40758;DHT22;26462;47.384;19.218;2023-04-01T00:52:25;10.30;99.90
40758;DHT22;26462;47.384;19.218;2023-04-01T00:54:56;10.50;99.90
40758;DHT22;26462;47.384;19.218;2023-04-01T00:57:34;10.50;99.90
40758;DHT22;26462;47.384;19.218;2023-04-01T01:00:08;10.30;99.90
40758;DHT22;26462;47.384;19.218;2023-04-01T01:02:38;10.30;99.90
40758;DHT22;26462;47.384;19.218;2023-04-01T01:05:11;10.10;99.90
40758;DHT22;26462;47.384;19.218;2023-04-01T01:10:35;10.30;99.90
40758;DHT22;26462;47.384;19.218;2023-04-01T01:13:29;10.20;99.90
40758;DHT22;26462;47.384;19.218;2023-04-01T01:16:09;10.30;99.90
40758;DHT22;26462;47.384;19.218;2023-04-01T01:22:01;10.30;99.90
40758;DHT22;26462;47.384;19.218;2023-04-01T01:27:34;10.40;99.90
40758;DHT22;26462;47.384;19.218;2023-04-01T01:30:34;10.10;99.90
40758;DHT22;26462;47.384;19.218;2023-04-01T01:33:35;10.10;99.90
40758;DHT22;26462;47.384;19.218;2023-04-01T01:36:06;10.20;99.90
40758;DHT22;26462;47.384;19.218;2023-04-01T01:38:37;10.20;99.90
40758;DHT22;26462;47.384;19.218;2023-04-01T01:41:07;10.00;99.90
40758;DHT22;26462;47.384;19.218;2023-04-01T01:43:43;10.00;99.90
40758;DHT22;26462;47.384;19.218;2023-04-01T01:46:21;10.00;99.90
40758;DHT22;26462;47.384;19.218;2023-04-01T01:48:51;10.00;99.90
40758;DHT22;26462;47.384;19.218;2023-04-01T01:51:21;10.10;99.90
40758;DHT22;26462;47.384;19.218;2023-04-01T01:53:49;9.90;99.90
40758;DHT22;26462;47.384;19.218;2023-04-01T01:56:22;10.20;99.90
40758;DHT22;26462;47.384;19.218;2023-04-01T01:59:00;10.10;99.90
40758;DHT22;26462;47.384;19.218;2023-04-01T02:01:31;10.10;99.90
40758;DHT22;26462;47.384;19.218;2023-04-01T02:04:08;9.90;99.90
40758;DHT22;26462;47.384;19.218;2023-04-01T02:06:40;10.10;99.90
40758;DHT22;26462;47.384;19.218;2023-04-01T02:09:18;10.00;99.90
40758;DHT22;26462;47.384;19.218;2023-04-01T02:11:52;9.90;99.90
40758;DHT22;26462;47.384;19.218;2023-04-01T02:14:23;10.00;99.90
40758;DHT22;26462;47.384;19.218;2023-04-01T02:17:15;10.10;99.90
40758;DHT22;26462;47.384;19.218;2023-04-01T02:22:33;9.80;99.90
40758;DHT22;26462;47.384;19.218;2023-04-01T02:25:12;10.20;99.90
40758;DHT22;26462;47.384;19.218;2023-04-01T02:27:43;10.10;99.90
40758;DHT22;26462;47.384;19.218;2023-04-01T02:30:14;9.90;99.90
40758;DHT22;26462;47.384;19.218;2023-04-01T02:32:43;9.90;99.90
40758;DHT22;26462;47.384;19.218;2023-04-01T02:35:13;10.10;99.90
40758;DHT22;26462;47.384;19.218;2023-04-01T02:37:42;10.00;99.90
40758;DHT22;26462;47.384;19.218;2023-04-01T02:40:13;10.00;99.90
40758;DHT22;26462;47.384;19.218;2023-04-01T02:42:41;9.90;99.90
40758;DHT22;26462;47.384;19.218;2023-04-01T02:45:10;10.00;99.90
40758;DHT22;26462;47.384;19.218;2023-04-01T02:47:38;9.90;99.90
40758;DHT22;26462;47.384;19.218;2023-04-01T02:50:07;9.90;99.90
40758;DHT22;26462;47.384;19.218;2023-04-01T02:52:34;10.00;99.90
40758;DHT22;26462;47.384;19.218;2023-04-01T02:55:02;9.90;99.90
40758;DHT22;26462;47.384;19.218;2023-04-01T02:57:32;9.90;99.90
40758;DHT22;26462;47.384;19.218;2023-04-01T02:59:59;9.90;99.90
40758;DHT22;26462;47.384;19.218;2023-04-01T03:02:27;9.20;99.90
40758;DHT22;26462;47.384;19.218;2023-04-01T03:04:55;10.40;99.90
40758;DHT22;26462;47.384;19.218;2023-04-01T03:07:22;9.10;99.90
40758;DHT22;26462;47.384;19.218;2023-04-01T03:09:49;9.70;99.90
40758;DHT22;26462;47.384;19.218;2023-04-01T03:12:17;10.10;99.90
40758;DHT22;26462;47.384;19.218;2023-04-01T03:14:49;9.70;99.90
40758;DHT22;26462;47.384;19.218;2023-04-01T03:17:17;9.80;99.90
40758;DHT22;26462;47.384;19.218;2023-04-01T03:19:45;9.70;99.90
40758;DHT22;26462;47.384;19.218;2023-04-01T03:22:13;9.70;99.90
40758;DHT22;26462;47.384;19.218;2023-04-01T03:24:40;9.60;99.90
40758;DHT22;26462;47.384;19.218;2023-04-01T03:27:07;9.60;99.90
40758;DHT22;26462;47.384;19.218;2023-04-01T03:29:35;9.60;99.90
40758;DHT22;26462;47.384;19.218;2023-04-01T03:32:02;9.60;99.90
40758;DHT22;26462;47.384;19.218;2023-04-01T03:34:29;9.60;99.90
40758;DHT22;26462;47.384;19.218;2023-04-01T03:36:57;9.40;99.90
40758;DHT22;26462;47.384;19.218;2023-04-01T03:39:24;9.50;99.90
40758;DHT22;26462;47.384;19.218;2023-04-01T03:41:52;9.50;99.90
40758;DHT22;26462;47.384;19.218;2023-04-01T03:44:19;9.50;99.90
40758;DHT22;26462;47.384;19.218;2023-04-01T03:46:50;9.40;99.90
40758;DHT22;26462;47.384;19.218;2023-04-01T03:49:17;9.40;99.90
40758;DHT22;26462;47.384;19.218;2023-04-01T03:51:45;9.40;99.90
40758;DHT22;26462;47.384;19.218;2023-04-01T03:54:12;9.40;99.90
40758;DHT22;26462;47.384;19.218;2023-04-01T03:56:40;9.40;99.90
40758;DHT22;26462;47.384;19.218;2023-04-01T03:59:08;9.40;99.90
40758;DHT22;26462;47.384;19.218;2023-04-01T04:01:35;9.30;99.90
40758;DHT22;26462;47.384;19.218;2023-04-01T04:04:03;9.30;99.90
40758;DHT22;26462;47.384;19.218;2023-04-01T04:06:32;9.80;99.90
40758;DHT22;26462;47.384;19.218;2023-04-01T04:09:00;9.30;99.90
40758;DHT22;26462;47.384;19.218;2023-04-01T04:11:31;9.20;99.90
40758;DHT22;26462;47.384;19.218;2023-04-01T04:13:59;9.20;99.90
40758;DHT22;26462;47.384;19.218;2023-04-01T04:16:27;9.20;99.90
40758;DHT22;26462;47.384;19.218;2023-04-01T04:18:58;9.20;99.90
40758;DHT22;26462;47.384;19.218;2023-04-01T04:21:26;9.20;99.90
40758;DHT22;26462;47.384;19.218;2023-04-01T04:23:53;9.20;99.90
40758;DHT22;26462;47.384;19.218;2023-04-01T04:26:21;9.20;99.90
40758;DHT22;26462;47.384;19.218;2023-04-01T04:28:57;9.10;99.90
40758;DHT22;26462;47.384;19.218;2023-04-01T04:31:25;9.20;99.90
40758;DHT22;26462;47.384;19.218;2023-04-01T04:33:55;9.20;99.90
40758;DHT22;26462;47.384;19.218;2023-04-01T04:36:23;9.10;99.90
40758;DHT22;26462;47.384;19.218;2023-04-01T04:38:51;9.10;99.90
40758;DHT22;26462;47.384;19.218;2023-04-01T04:41:19;9.10;99.90
40758;DHT22;26462;47.384;19.218;2023-04-01T04:43:52;9.10;99.90
40758;DHT22;26462;47.384;19.218;2023-04-01T04:46:21;9.10;99.90
40758;DHT22;26462;47.384;19.218;2023-04-01T04:48:53;9.10;99.90
40758;DHT22;26462;47.384;19.218;2023-04-01T04:51:22;9.10;99.90
40758;DHT22;26462;47.384;19.218;2023-04-01T04:53:49;8.60;99.90
40758;DHT22;26462;47.384;19.218;2023-04-01T04:56:22;9.10;99.90
40758;DHT22;26462;47.384;19.218;2023-04-01T04:58:59;9.10;99.90
40758;DHT22;26462;47.384;19.218;2023-04-01T05:01:39;9.10;99.90
40758;DHT22;26462;47.384;19.218;2023-04-01T05:04:06;9.10;99.90
40758;DHT22;26462;47.384;19.218;2023-04-01T05:06:34;9.10;99.90
40758;DHT22;26462;47.384;19.218;2023-04-01T05:09:01;9.10;99.90
40758;DHT22;26462;47.384;19.218;2023-04-01T05:11:28;9.10;99.90
40758;DHT22;26462;47.384;19.218;2023-04-01T05:13:56;8.90;99.90
40758;DHT22;26462;47.384;19.218;2023-04-01T05:16:23;9.10;99.90
40758;DHT22;26462;47.384;19.218;2023-04-01T05:18:51;8.40;99.90
40758;DHT22;26462;47.384;19.218;2023-04-01T05:21:18;9.20;99.90
40758;DHT22;26462;47.384;19.218;2023-04-01T05:23:45;9.20;99.90
40758;DHT22;26462;47.384;19.218;2023-04-01T05:26:14;9.60;99.90
40758;DHT22;26462;47.384;19.218;2023-04-01T05:28:41;9.20;99.90
40758;DHT22;26462;47.384;19.218;2023-04-01T05:31:09;9.20;99.90
40758;DHT22;26462;47.384;19.218;2023-04-01T05:33:39;9.30;99.90
40758;DHT22;26462;47.384;19.218;2023-04-01T05:36:16;9.30;99.90
40758;DHT22;26462;47.384;19.218;2023-04-01T05:38:43;9.30;99.90
40758;DHT22;26462;47.384;19.218;2023-04-01T05:41:14;9.30;99.90
40758;DHT22;26462;47.384;19.218;2023-04-01T05:43:44;9.40;99.90
40758;DHT22;26462;47.384;19.218;2023-04-01T05:46:32;9.40;99.90
40758;DHT22;26462;47.384;19.218;2023-04-01T05:49:08;9.40;99.90
40758;DHT22;26462;47.384;19.218;2023-04-01T05:51:36;9.20;99.90
40758;DHT22;26462;47.384;19.218;2023-04-01T05:54:05;9.50;99.90
40758;DHT22;26462;47.384;19.218;2023-04-01T05:56:32;9.40;99.90
40758;DHT22;26462;47.384;19.218;2023-04-01T05:59:00;9.60;99.90
40758;DHT22;26462;47.384;19.218;2023-04-01T06:01:28;9.70;99.90
40758;DHT22;26462;47.384;19.218;2023-04-01T06:03:55;8.60;99.90
40758;DHT22;26462;47.384;19.218;2023-04-01T06:06:27;9.90;99.90
40758;DHT22;26462;47.384;19.218;2023-04-01T06:20:26;10.10;99.90
40758;DHT22;26462;47.384;19.218;2023-04-01T06:35:17;10.40;99.90
40758;DHT22;26462;47.384;19.218;2023-04-01T06:38:01;10.30;99.90
40758;DHT22;26462;47.384;19.218;2023-04-01T06:41:00;10.20;99.90
40758;DHT22;26462;47.384;19.218;2023-04-01T06:46:47;10.40;99.90
40758;DHT22;26462;47.384;19.218;2023-04-01T06:49:48;10.50;99.90
40758;DHT22;26462;47.384;19.218;2023-04-01T06:55:35;9.50;99.90
40758;DHT22;26462;47.384;19.218;2023-04-01T07:00:51;10.70;99.90
40758;DHT22;26462;47.384;19.218;2023-04-01T07:06:09;10.80;99.90
40758;DHT22;26462;47.384;19.218;2023-04-01T07:08:51;10.90;99.90
40758;DHT22;26462;47.384;19.218;2023-04-01T07:11:36;10.90;99.90
40758;DHT22;26462;47.384;19.218;2023-04-01T07:14:33;10.90;99.90
40758;DHT22;26462;47.384;19.218;2023-04-01T07:17:19;11.00;99.90
40758;DHT22;26462;47.384;19.218;2023-04-01T07:20:02;11.10;99.90
40758;DHT22;26462;47.384;19.218;2023-04-01T07:22:42;11.10;99.90
40758;DHT22;26462;47.384;19.218;2023-04-01T07:25:45;11.50;99.90
40758;DHT22;26462;47.384;19.218;2023-04-01T07:28:39;11.10;99.90
40758;DHT22;26462;47.384;19.218;2023-04-01T07:34:45;11.40;99.90
40758;DHT22;26462;47.384;19.218;2023-04-01T07:37:39;11.40;99.90
40758;DHT22;26462;47.384;19.218;2023-04-01T07:43:25;11.50;99.90
40758;DHT22;26462;47.384;19.218;2023-04-01T07:49:00;11.70;99.80
40758;DHT22;26462;47.384;19.218;2023-04-01T07:51:45;11.70;98.50
40758;DHT22;26462;47.384;19.218;2023-04-01T08:06:06;11.90;95.60
40758;DHT22;26462;47.384;19.218;2023-04-01T08:08:41;12.30;95.10
40758;DHT22;26462;47.384;19.218;2023-04-01T08:23:22;13.30;96.60
40758;DHT22;26462;47.384;19.218;2023-04-01T08:26:18;13.20;98.70
40758;DHT22;26462;47.384;19.218;2023-04-01T08:34:23;13.10;93.00
40758;DHT22;26462;47.384;19.218;2023-04-01T08:36:57;13.20;91.70
40758;DHT22;26462;47.384;19.218;2023-04-01T08:39:37;13.20;91.90
40758;DHT22;26462;47.384;19.218;2023-04-01T08:43:29;13.10;91.10
40758;DHT22;26462;47.384;19.218;2023-04-01T08:56:31;13.20;90.70
40758;DHT22;26462;47.384;19.218;2023-04-01T09:10:52;13.10;91.00
40758;DHT22;26462;47.384;19.218;2023-04-01T09:19:42;13.20;90.30
40758;DHT22;26462;47.384;19.218;2023-04-01T09:46:09;13.20;90.00
40758;DHT22;26462;47.384;19.218;2023-04-01T09:52:02;13.70;88.60
40758;DHT22;26462;47.384;19.218;2023-04-01T10:22:31;13.30;89.60
40758;DHT22;26462;47.384;19.218;2023-04-01T10:25:35;13.30;90.30
40758;DHT22;26462;47.384;19.218;2023-04-01T10:31:32;13.30;90.00
40758;DHT22;26462;47.384;19.218;2023-04-01T10:36:52;13.30;90.00
40758;DHT22;26462;47.384;19.218;2023-04-01T10:39:37;13.30;90.20
40758;DHT22;26462;47.384;19.218;2023-04-01T11:04:29;13.70;88.60
40758;DHT22;26462;47.384;19.218;2023-04-01T11:16:29;13.60;89.70
40758;DHT22;26462;47.384;19.218;2023-04-01T11:24:59;14.00;88.50
40758;DHT22;26462;47.384;19.218;2023-04-01T11:39:44;13.70;89.30
40758;DHT22;26462;47.384;19.218;2023-04-01T11:46:25;13.80;89.40
40758;DHT22;26462;47.384;19.218;2023-04-01T12:00:16;14.00;85.20
40758;DHT22;26462;47.384;19.218;2023-04-01T12:03:21;13.90;85.10
40758;DHT22;26462;47.384;19.218;2023-04-01T12:09:09;13.70;85.60
40758;DHT22;26462;47.384;19.218;2023-04-01T12:11:58;13.60;86.10
40758;DHT22;26462;47.384;19.218;2023-04-01T12:14:44;13.60;86.10
40758;DHT22;26462;47.384;19.218;2023-04-01T12:31:47;13.50;87.50
40758;DHT22;26462;47.384;19.218;2023-04-01T12:34:41;13.60;86.80
40758;DHT22;26462;47.384;19.218;2023-04-01T12:42:57;13.90;83.30
40758;DHT22;26462;47.384;19.218;2023-04-01T12:45:35;14.10;82.70
40758;DHT22;26462;47.384;19.218;2023-04-01T12:56:36;14.70;81.20
40758;DHT22;26462;47.384;19.218;2023-04-01T13:04:49;14.80;80.40
40758;DHT22;26462;47.384;19.218;2023-04-01T13:07:33;15.00;80.00
40758;DHT22;26462;47.384;19.218;2023-04-01T13:15:24;14.90;76.90
40758;DHT22;26462;47.384;19.218;2023-04-01T13:18:04;14.00;77.40
40758;DHT22;26462;47.384;19.218;2023-04-01T13:20:46;15.10;77.20
40758;DHT22;26462;47.384;19.218;2023-04-01T13:26:07;15.50;76.60
40758;DHT22;26462;47.384;19.218;2023-04-01T13:32:20;15.40;76.30
40758;DHT22;26462;47.384;19.218;2023-04-01T13:43:49;14.90;78.00
40758;DHT22;26462;47.384;19.218;2023-04-01T13:52:08;14.60;78.40
40758;DHT22;26462;47.384;19.218;2023-04-01T14:09:21;15.60;76.70
40758;DHT22;26462;47.384;19.218;2023-04-01T14:12:20;15.60;75.70
40758;DHT22;26462;47.384;19.218;2023-04-01T14:23:28;15.60;76.70
40758;DHT22;26462;47.384;19.218;2023-04-01T14:32:05;14.80;77.60
40758;DHT22;26462;47.384;19.218;2023-04-01T14:34:44;14.70;78.50
40758;DHT22;26462;47.384;19.218;2023-04-01T14:37:55;14.50;77.80
40758;DHT22;26462;47.384;19.218;2023-04-01T14:43:22;14.40;78.20
40758;DHT22;26462;47.384;19.218;2023-04-01T14:48:49;14.10;78.30
40758;DHT22;26462;47.384;19.218;2023-04-01T14:51:36;14.10;78.60
40758;DHT22;26462;47.384;19.218;2023-04-01T14:59:17;14.10;79.90
40758;DHT22;26462;47.384;19.218;2023-04-01T15:04:53;14.10;79.60
40758;DHT22;26462;47.384;19.218;2023-04-01T15:12:40;14.00;79.60
40758;DHT22;26462;47.384;19.218;2023-04-01T15:15:51;14.10;79.90
40758;DHT22;26462;47.384;19.218;2023-04-01T15:24:21;14.40;79.20
40758;DHT22;26462;47.384;19.218;2023-04-01T15:30:21;14.50;79.10
40758;DHT22;26462;47.384;19.218;2023-04-01T15:35:39;14.50;79.20
40758;DHT22;26462;47.384;19.218;2023-04-01T15:43:49;14.40;79.70
40758;DHT22;26462;47.384;19.218;2023-04-01T15:46:41;14.40;80.40
40758;DHT22;26462;47.384;19.218;2023-04-01T15:58:17;14.10;79.90
40758;DHT22;26462;47.384;19.218;2023-04-01T16:01:11;14.10;80.20
40758;DHT22;26462;47.384;19.218;2023-04-01T16:04:17;14.10;81.10
40758;DHT22;26462;47.384;19.218;2023-04-01T16:10:13;14.80;80.30
40758;DHT22;26462;47.384;19.218;2023-04-01T16:21:14;14.10;80.80
40758;DHT22;26462;47.384;19.218;2023-04-01T16:23:56;14.10;80.90
40758;DHT22;26462;47.384;19.218;2023-04-01T16:26:36;14.10;80.80
40758;DHT22;26462;47.384;19.218;2023-04-01T16:32:17;14.20;78.90
40758;DHT22;26462;47.384;19.218;2023-04-01T16:37:38;14.10;77.50
40758;DHT22;26462;47.384;19.218;2023-04-01T16:40:23;14.10;76.30
40758;DHT22;26462;47.384;19.218;2023-04-01T16:43:28;14.20;75.20
40758;DHT22;26462;47.384;19.218;2023-04-01T16:46:08;14.20;74.60
40758;DHT22;26462;47.384;19.218;2023-04-01T16:51:22;14.10;74.70
40758;DHT22;26462;47.384;19.218;2023-04-01T16:54:05;14.10;74.00
40758;DHT22;26462;47.384;19.218;2023-04-01T16:56:50;14.00;74.20
40758;DHT22;26462;47.384;19.218;2023-04-01T16:59:37;13.40;74.80
40758;DHT22;26462;47.384;19.218;2023-04-01T17:04:51;13.60;75.30
40758;DHT22;26462;47.384;19.218;2023-04-01T17:10:45;13.60;76.00
40758;DHT22;26462;47.384;19.218;2023-04-01T17:13:37;13.60;75.10
40758;DHT22;26462;47.384;19.218;2023-04-01T17:22:18;13.40;75.80
40758;DHT22;26462;47.384;19.218;2023-04-01T17:25:08;13.40;76.30
40758;DHT22;26462;47.384;19.218;2023-04-01T17:27:59;13.30;76.20
40758;DHT22;26462;47.384;19.218;2023-04-01T17:33:31;13.20;77.10
40758;DHT22;26462;47.384;19.218;2023-04-01T17:49:57;12.80;79.20
40758;DHT22;26462;47.384;19.218;2023-04-01T17:53:11;12.70;79.80
40758;DHT22;26462;47.384;19.218;2023-04-01T17:55:43;12.70;80.60
40758;DHT22;26462;47.384;19.218;2023-04-01T17:58:22;12.60;81.00
40758;DHT22;26462;47.384;19.218;2023-04-01T18:01:26;12.60;81.40
40758;DHT22;26462;47.384;19.218;2023-04-01T18:04:08;12.50;81.60
40758;DHT22;26462;47.384;19.218;2023-04-01T18:20:52;12.30;83.60
40758;DHT22;26462;47.384;19.218;2023-04-01T18:23:38;12.20;84.30
40758;DHT22;26462;47.384;19.218;2023-04-01T18:26:35;12.20;85.40
40758;DHT22;26462;47.384;19.218;2023-04-01T18:29:49;12.10;85.50
40758;DHT22;26462;47.384;19.218;2023-04-01T18:38:31;12.00;87.90
40758;DHT22;26462;47.384;19.218;2023-04-01T18:41:14;11.90;88.50
40758;DHT22;26462;47.384;19.218;2023-04-01T18:46:55;11.80;88.60
40758;DHT22;26462;47.384;19.218;2023-04-01T18:52:15;11.70;87.50
40758;DHT22;26462;47.384;19.218;2023-04-01T18:55:24;11.70;87.60
40758;DHT22;26462;47.384;19.218;2023-04-01T19:01:04;11.60;87.80
40758;DHT22;26462;47.384;19.218;2023-04-01T19:06:44;11.50;88.40
40758;DHT22;26462;47.384;19.218;2023-04-01T19:09:44;11.50;88.80
40758;DHT22;26462;47.384;19.218;2023-04-01T19:26:37;11.30;90.80
40758;DHT22;26462;47.384;19.218;2023-04-01T19:35:16;11.30;90.80
40758;DHT22;26462;47.384;19.218;2023-04-01T19:40:58;11.20;91.70
40758;DHT22;26462;47.384;19.218;2023-04-01T19:43:59;11.20;91.90
40758;DHT22;26462;47.384;19.218;2023-04-01T19:54:44;11.00;92.00
40758;DHT22;26462;47.384;19.218;2023-04-01T19:57:51;11.00;92.10
40758;DHT22;26462;47.384;19.218;2023-04-01T20:00:59;11.00;92.10
40758;DHT22;26462;47.384;19.218;2023-04-01T20:12:04;10.80;93.00
40758;DHT22;26462;47.384;19.218;2023-04-01T20:14:38;10.80;93.20
40758;DHT22;26462;47.384;19.218;2023-04-01T20:44:54;10.30;97.50
40758;DHT22;26462;47.384;19.218;2023-04-01T20:50:28;10.20;98.40
40758;DHT22;26462;47.384;19.218;2023-04-01T21:01:20;10.10;99.00
40758;DHT22;26462;47.384;19.218;2023-04-01T21:09:29;9.90;99.60
40758;DHT22;26462;47.384;19.218;2023-04-01T21:15:07;9.80;99.90
40758;DHT22;26462;47.384;19.218;2023-04-01T21:31:27;9.80;99.90
40758;DHT22;26462;47.384;19.218;2023-04-01T21:45:23;9.60;99.90
40758;DHT22;26462;47.384;19.218;2023-04-01T22:00:06;9.50;99.90
40758;DHT22;26462;47.384;19.218;2023-04-01T22:11:14;9.40;99.90
40758;DHT22;26462;47.384;19.218;2023-04-01T22:16:41;9.20;99.90
40758;DHT22;26462;47.384;19.218;2023-04-01T22:19:24;9.20;99.90
40758;DHT22;26462;47.384;19.218;2023-04-01T22:25:07;9.20;99.90
40758;DHT22;26462;47.384;19.218;2023-04-01T22:27:49;9.20;99.90
40758;DHT22;26462;47.384;19.218;2023-04-01T22:30:24;9.20;99.90
40758;DHT22;26462;47.384;19.218;2023-04-01T22:33:03;9.20;99.90
40758;DHT22;26462;47.384;19.218;2023-04-01T22:35:56;9.10;99.90
40758;DHT22;26462;47.384;19.218;2023-04-01T22:50:53;9.30;99.90
40758;DHT22;26462;47.384;19.218;2023-04-01T22:56:16;9.30;99.90
40758;DHT22;26462;47.384;19.218;2023-04-01T22:59:11;9.30;99.90
40758;DHT22;26462;47.384;19.218;2023-04-01T23:01:53;9.30;99.90
40758;DHT22;26462;47.384;19.218;2023-04-01T23:04:24;9.30;99.90
40758;DHT22;26462;47.384;19.218;2023-04-01T23:07:00;9.30;99.90
40758;DHT22;26462;47.384;19.218;2023-04-01T23:09:34;9.30;99.90
40758;DHT22;26462;47.384;19.218;2023-04-01T23:12:21;9.20;99.90
40758;DHT22;26462;47.384;19.218;2023-04-01T23:15:22;9.30;99.90
40758;DHT22;26462;47.384;19.218;2023-04-01T23:36:13;9.60;99.90
40758;DHT22;26462;47.384;19.218;2023-04-01T23:38:42;9.50;99.90
40758;DHT22;26462;47.384;19.218;2023-04-01T23:41:25;9.00;99.90
40758;DHT22;26462;47.384;19.218;2023-04-01T23:44:11;9.40;99.90
40758;DHT22;26462;47.384;19.218;2023-04-01T23:46:41;8.50;99.90
40758;DHT22;26462;47.384;19.218;2023-04-01T23:49:14;10.30;99.90
40758;DHT22;26462;47.384;19.218;2023-04-01T23:52:02;9.20;99.90
40758;DHT22;26462;47.384;19.218;2023-04-01T23:54:34;9.20;99.90
40758;DHT22;26462;47.384;19.218;2023-04-01T23:57:12;9.10;99.90
40758;DHT22;26462;47.384;19.218;2023-04-01T23:59:40;9.20;99.90
